createdAt,value
2019-01-05T00:00:07.826Z,18.8
2019-01-05T00:00:57.081Z,18.8
2019-01-05T00:01:47.946Z,18.8
2019-01-05T00:02:38.004Z,18.8
2019-01-05T00:03:28.066Z,18.8
2019-01-05T00:04:17.846Z,18.8
2019-01-05T00:05:07.901Z,18.8
2019-01-05T00:05:57.971Z,18.8
2019-01-05T00:06:48.286Z,18.8
2019-01-05T00:07:38.366Z,18.8
2019-01-05T00:08:28.403Z,18.8
2019-01-05T00:09:18.189Z,18.8
2019-01-05T00:10:08.768Z,18.8
2019-01-05T00:10:58.016Z,18.8
2019-01-05T00:11:48.370Z,18.8
2019-01-05T00:12:38.405Z,18.8
2019-01-05T00:13:28.474Z,18.8
2019-01-05T00:14:18.263Z,18.8
2019-01-05T00:15:09.109Z,18.8
2019-01-05T00:34:12.642Z,18.8
2019-01-05T01:09:15.114Z,18.6
2019-01-05T01:11:45.437Z,18.6
2019-01-05T01:21:46.119Z,18.6
2019-01-05T01:25:55.306Z,18.6
2019-01-05T01:26:46.188Z,18.6
2019-01-05T01:27:35.957Z,18.6
2019-01-05T01:29:15.793Z,18.6
2019-01-05T01:30:56.471Z,18.6
2019-01-05T01:31:46.593Z,18.6
2019-01-05T01:33:27.211Z,18.6
2019-01-05T01:34:16.410Z,18.6
2019-01-05T01:35:57.090Z,18.6
2019-01-05T01:36:46.308Z,18.6
2019-01-05T01:37:36.373Z,18.6
2019-01-05T01:38:26.138Z,18.6
2019-01-05T01:39:16.748Z,18.6
2019-01-05T01:40:06.833Z,18.6
2019-01-05T01:40:56.865Z,18.6
2019-01-05T01:42:36.471Z,18.6
2019-01-05T01:43:27.615Z,18.6
2019-01-05T01:44:17.410Z,18.6
2019-01-05T01:45:07.167Z,18.6
2019-01-05T01:45:57.485Z,18.6
2019-01-05T01:46:47.547Z,18.6
2019-01-05T01:48:27.923Z,18.6
2019-01-05T01:49:17.992Z,18.6
2019-01-05T01:50:07.768Z,18.6
2019-01-05T01:50:58.087Z,18.6
2019-01-05T01:51:47.605Z,18.6
2019-01-05T01:52:37.975Z,18.6
2019-01-05T01:53:28.264Z,18.6
2019-01-05T01:54:18.057Z,18.6
2019-01-05T01:55:58.167Z,18.6
2019-01-05T01:56:48.502Z,18.6
2019-01-05T01:57:37.167Z,18.6
2019-01-05T01:58:28.604Z,18.6
2019-01-05T01:59:18.400Z,18.6
2019-01-05T02:00:08.452Z,18.6
2019-01-05T02:00:58.514Z,18.6
2019-01-05T02:01:48.287Z,18.6
2019-01-05T02:02:38.339Z,18.6
2019-01-05T02:03:28.663Z,18.6
2019-01-05T02:04:18.444Z,18.6
2019-01-05T02:05:09.069Z,18.6
2019-01-05T02:05:58.851Z,18.6
2019-01-05T02:06:49.169Z,18.6
2019-01-05T02:07:38.411Z,18.6
2019-01-05T02:08:29.015Z,18.6
2019-01-05T02:09:18.846Z,18.6
2019-01-05T02:10:08.859Z,18.6
2019-01-05T02:10:59.462Z,18.6
2019-01-05T02:11:48.966Z,18.6
2019-01-05T02:12:39.561Z,18.6
2019-01-05T02:13:29.631Z,18.6
2019-01-05T02:14:18.578Z,18.6
2019-01-05T02:15:09.510Z,18.6
2019-01-05T02:15:59.253Z,18.6
2019-01-05T02:16:50.081Z,18.6
2019-01-05T02:17:39.626Z,18.6
2019-01-05T02:18:29.683Z,18.6
2019-01-05T02:19:19.188Z,18.6
2019-01-05T02:20:09.546Z,18.6
2019-01-05T02:20:59.318Z,18.6
2019-01-05T02:21:50.175Z,18.6
2019-01-05T02:22:40.242Z,18.6
2019-01-05T02:23:29.481Z,18.6
2019-01-05T02:24:20.365Z,18.6
2019-01-05T02:25:10.455Z,18.6
2019-01-05T02:26:00.481Z,18.6
2019-01-05T02:26:50.270Z,18.6
2019-01-05T02:27:40.340Z,18.6
2019-01-05T02:28:30.675Z,18.6
2019-01-05T02:29:19.880Z,18.6
2019-01-05T02:30:09.987Z,18.6
2019-01-05T02:31:00.590Z,18.6
2019-01-05T02:31:50.487Z,18.6
2019-01-05T02:32:40.420Z,18.6
2019-01-05T02:33:30.739Z,18.6
2019-01-05T02:34:21.112Z,18.6
2019-01-05T02:35:11.143Z,18.6
2019-01-05T02:36:00.641Z,18.6
2019-01-05T02:36:50.402Z,18.6
2019-01-05T02:37:40.739Z,18.6
2019-01-05T02:38:30.555Z,18.6
2019-01-05T02:39:21.473Z,18.6
2019-01-05T02:40:11.213Z,18.6
2019-01-05T02:41:01.010Z,18.6
2019-01-05T02:41:51.041Z,18.6
2019-01-05T02:42:41.651Z,18.6
2019-01-05T02:43:31.700Z,18.6
2019-01-05T02:44:21.206Z,18.6
2019-01-05T02:45:11.819Z,18.6
2019-01-05T02:46:01.044Z,18.6
2019-01-05T02:46:51.349Z,18.6
2019-01-05T02:47:41.405Z,18.6
2019-01-05T02:48:31.474Z,18.6
2019-01-05T02:49:22.086Z,18.6
2019-01-05T02:50:12.132Z,18.6
2019-01-05T02:51:01.638Z,18.6
2019-01-05T02:51:52.244Z,18.6
2019-01-05T02:52:42.033Z,18.6
2019-01-05T02:53:32.383Z,18.6
2019-01-05T02:54:21.874Z,18.6
2019-01-05T02:55:11.917Z,18.6
2019-01-05T02:56:02.248Z,18.6
2019-01-05T02:56:52.035Z,18.6
2019-01-05T02:57:42.789Z,18.6
2019-01-05T02:58:32.146Z,18.6
2019-01-05T02:59:22.756Z,18.6
2019-01-05T03:00:12.273Z,18.6
2019-01-05T03:01:03.166Z,18.6
2019-01-05T03:01:52.099Z,18.6
2019-01-05T03:02:42.679Z,18.6
2019-01-05T03:03:32.491Z,18.6
2019-01-05T03:04:22.528Z,18.6
2019-01-05T03:05:12.860Z,18.6
2019-01-05T03:06:02.900Z,18.6
2019-01-05T03:06:52.450Z,18.6
2019-01-05T03:07:43.088Z,18.6
2019-01-05T03:08:32.859Z,18.6
2019-01-05T03:09:23.168Z,18.6
2019-01-05T03:10:13.205Z,18.6
2019-01-05T03:11:02.993Z,18.6
2019-01-05T03:11:53.610Z,18.6
2019-01-05T03:12:43.666Z,18.6
2019-01-05T03:13:33.208Z,18.6
2019-01-05T03:14:23.313Z,18.6
2019-01-05T03:15:13.827Z,18.6
2019-01-05T03:16:03.315Z,18.6
2019-01-05T03:16:53.163Z,18.6
2019-01-05T03:17:43.745Z,18.6
2019-01-05T03:18:34.107Z,18.6
2019-01-05T03:19:23.903Z,18.6
2019-01-05T03:20:13.659Z,18.6
2019-01-05T03:21:04.234Z,18.6
2019-01-05T03:21:54.287Z,18.6
2019-01-05T03:22:43.844Z,18.6
2019-01-05T03:23:34.446Z,18.6
2019-01-05T03:24:23.901Z,18.6
2019-01-05T03:25:13.737Z,18.6
2019-01-05T03:26:04.299Z,18.6
2019-01-05T03:26:54.071Z,18.6
2019-01-05T03:27:44.115Z,18.6
2019-01-05T03:28:34.455Z,18.6
2019-01-05T03:29:24.796Z,18.6
2019-01-05T03:30:14.435Z,18.6
2019-01-05T03:31:05.025Z,18.6
2019-01-05T03:31:55.051Z,18.6
2019-01-05T03:32:44.617Z,18.6
2019-01-05T03:33:35.094Z,18.6
2019-01-05T03:34:24.576Z,18.6
2019-01-05T03:35:14.678Z,18.6
2019-01-05T03:36:04.438Z,18.6
2019-01-05T03:36:55.022Z,18.6
2019-01-05T03:37:45.091Z,18.6
2019-01-05T03:38:35.139Z,18.6
2019-01-05T03:39:25.250Z,18.6
2019-01-05T03:40:15.537Z,18.6
2019-01-05T03:41:05.053Z,18.6
2019-01-05T03:41:55.366Z,18.6
2019-01-05T03:42:45.475Z,18.6
2019-01-05T03:43:35.489Z,18.6
2019-01-05T03:44:25.277Z,18.6
2019-01-05T03:45:15.330Z,18.6
2019-01-05T03:46:05.922Z,18.6
2019-01-05T03:46:55.415Z,18.6
2019-01-05T03:47:45.498Z,18.6
2019-01-05T03:48:36.343Z,18.6
2019-01-05T03:49:25.885Z,18.6
2019-01-05T03:50:15.710Z,18.6
2019-01-05T03:51:06.247Z,18.6
2019-01-05T03:51:55.240Z,18.6
2019-01-05T03:52:46.102Z,18.6
2019-01-05T03:53:36.391Z,18.6
2019-01-05T03:54:26.474Z,18.6
2019-01-05T03:55:16.609Z,18.6
2019-01-05T03:56:06.050Z,18.6
2019-01-05T03:56:56.396Z,18.6
2019-01-05T03:57:46.437Z,18.6
2019-01-05T03:58:36.489Z,18.6
2019-01-05T03:59:26.565Z,18.6
2019-01-05T04:00:16.064Z,18.6
2019-01-05T04:01:06.952Z,18.6
2019-01-05T04:01:56.722Z,18.6
2019-01-05T04:02:47.054Z,18.6
2019-01-05T04:03:36.823Z,18.6
2019-01-05T04:04:26.884Z,18.6
2019-01-05T04:05:16.703Z,18.6
2019-01-05T04:06:06.190Z,18.6
2019-01-05T04:06:56.794Z,18.6
2019-01-05T04:07:46.862Z,18.6
2019-01-05T04:08:37.164Z,18.6
2019-01-05T04:09:27.294Z,18.6
2019-01-05T04:10:16.736Z,18.6
2019-01-05T04:11:07.039Z,18.6
2019-01-05T04:11:57.399Z,18.6
2019-01-05T04:12:47.506Z,18.6
2019-01-05T04:13:37.514Z,18.6
2019-01-05T04:14:27.309Z,18.6
2019-01-05T04:15:17.901Z,18.6
2019-01-05T04:16:07.679Z,18.6
2019-01-05T04:16:57.441Z,18.6
2019-01-05T04:17:47.513Z,18.6
2019-01-05T04:18:37.577Z,18.6
2019-01-05T04:19:28.190Z,18.6
2019-01-05T04:20:17.403Z,18.6
2019-01-05T04:21:07.201Z,18.6
2019-01-05T04:21:58.356Z,18.6
2019-01-05T04:22:48.143Z,18.6
2019-01-05T04:23:38.230Z,18.6
2019-01-05T04:24:28.521Z,18.6
2019-01-05T04:25:18.733Z,18.6
2019-01-05T04:26:08.413Z,18.6
2019-01-05T04:26:58.712Z,18.6
2019-01-05T04:27:48.468Z,18.6
2019-01-05T04:28:37.719Z,18.6
2019-01-05T04:29:28.895Z,18.6
2019-01-05T04:30:19.430Z,18.6
2019-01-05T04:31:08.696Z,18.6
2019-01-05T04:31:57.945Z,18.6
2019-01-05T04:32:48.828Z,18.6
2019-01-05T04:33:39.129Z,18.6
2019-01-05T04:34:29.218Z,18.6
2019-01-05T04:35:18.713Z,18.6
2019-01-05T04:36:08.843Z,18.6
2019-01-05T04:36:59.143Z,18.6
2019-01-05T04:37:48.981Z,18.6
2019-01-05T04:38:38.942Z,18.6
2019-01-05T04:39:29.545Z,18.6
2019-01-05T04:40:19.604Z,18.6
2019-01-05T04:41:09.797Z,18.6
2019-01-05T04:41:59.700Z,18.6
2019-01-05T04:42:48.935Z,18.6
2019-01-05T04:43:39.302Z,18.6
2019-01-05T04:44:29.623Z,18.6
2019-01-05T04:45:19.669Z,18.6
2019-01-05T05:02:39.388Z,18.6
2019-01-05T05:03:28.897Z,18.6
2019-01-05T05:04:18.964Z,18.6
2019-01-05T05:05:09.314Z,18.6
2019-01-05T05:05:59.581Z,18.6
2019-01-05T05:06:49.391Z,18.6
2019-01-05T05:07:39.923Z,18.6
2019-01-05T05:08:29.250Z,18.6
2019-01-05T05:09:18.743Z,18.6
2019-01-05T05:10:10.975Z,18.6
2019-01-05T05:10:59.773Z,18.6
2019-01-05T05:11:49.735Z,18.6
2019-01-05T05:12:40.112Z,18.6
2019-01-05T05:13:29.815Z,18.6
2019-01-05T05:14:20.170Z,18.6
2019-01-05T05:15:09.667Z,18.6
2019-01-05T05:16:00.287Z,18.6
2019-01-05T05:16:49.855Z,18.6
2019-01-05T05:17:40.086Z,18.6
2019-01-05T05:18:30.443Z,18.6
2019-01-05T05:19:19.682Z,18.6
2019-01-05T05:20:10.873Z,18.6
2019-01-05T05:21:00.347Z,18.6
2019-01-05T05:23:30.810Z,18.6
2019-01-05T05:24:20.307Z,18.6
2019-01-05T05:25:10.633Z,18.6
2019-01-05T05:31:01.337Z,18.8
2019-01-05T05:31:51.054Z,18.9
2019-01-05T05:32:40.844Z,18.9
2019-01-05T05:33:31.186Z,18.9
2019-01-05T05:34:21.242Z,19
2019-01-05T05:35:11.016Z,19
2019-01-05T05:36:01.076Z,19
2019-01-05T05:36:51.412Z,19.1
2019-01-05T05:37:41.471Z,19.1
2019-01-05T05:38:31.257Z,19.1
2019-01-05T05:39:21.863Z,19.1
2019-01-05T05:40:11.398Z,19.2
2019-01-05T05:41:01.148Z,19.2
2019-01-05T05:41:51.443Z,19.3
2019-01-05T05:42:41.531Z,19.3
2019-01-05T05:43:32.128Z,19.2
2019-01-05T05:44:22.199Z,19.2
2019-01-05T05:45:12.273Z,19.2
2019-01-05T05:46:02.320Z,19.1
2019-01-05T05:46:51.586Z,19.1
2019-01-05T05:47:42.153Z,19.1
2019-01-05T05:48:31.668Z,19.1
2019-01-05T05:49:22.553Z,19.1
2019-01-05T05:50:12.345Z,19.1
2019-01-05T05:51:02.103Z,19.1
2019-01-05T05:51:52.446Z,19.1
2019-01-05T05:52:42.518Z,19.1
2019-01-05T05:53:32.556Z,19.1
2019-01-05T05:54:22.059Z,19.1
2019-01-05T05:55:12.955Z,19.1
2019-01-05T05:56:02.716Z,19.1
2019-01-05T05:56:52.757Z,19
2019-01-05T05:57:42.547Z,19
2019-01-05T05:58:33.463Z,19.1
2019-01-05T05:59:22.947Z,19
2019-01-05T06:00:12.995Z,19.1
2019-01-05T06:01:03.348Z,19
2019-01-05T06:01:52.839Z,19
2019-01-05T06:02:43.447Z,19
2019-01-05T06:03:33.501Z,19
2019-01-05T06:04:23.305Z,19
2019-01-05T06:05:13.077Z,19
2019-01-05T06:06:03.642Z,19
2019-01-05T06:06:53.169Z,19
2019-01-05T06:07:43.212Z,19
2019-01-05T06:08:34.069Z,19
2019-01-05T06:09:23.621Z,19
2019-01-05T06:10:13.659Z,18.9
2019-01-05T06:11:04.046Z,19
2019-01-05T06:11:53.791Z,18.9
2019-01-05T06:12:43.554Z,18.9
2019-01-05T06:13:33.354Z,18.9
2019-01-05T06:14:23.941Z,18.9
2019-01-05T06:15:14.299Z,18.9
2019-01-05T06:16:03.501Z,19
2019-01-05T06:16:53.869Z,18.9
2019-01-05T06:17:44.163Z,18.9
2019-01-05T06:18:33.967Z,18.9
2019-01-05T06:19:24.574Z,18.9
2019-01-05T06:20:14.071Z,18.9
2019-01-05T06:21:04.126Z,18.9
2019-01-05T06:21:54.453Z,18.9
2019-01-05T06:22:44.506Z,18.9
2019-01-05T06:23:34.563Z,18.9
2019-01-05T06:24:24.665Z,18.9
2019-01-05T06:25:14.774Z,18.9
2019-01-05T06:26:04.742Z,18.9
2019-01-05T06:26:54.785Z,18.9
2019-01-05T06:27:44.301Z,18.9
2019-01-05T06:28:35.179Z,18.9
2019-01-05T06:29:25.239Z,18.9
2019-01-05T06:30:15.282Z,18.9
2019-01-05T06:31:05.069Z,18.9
2019-01-05T06:31:55.394Z,18.9
2019-01-05T06:32:45.457Z,18.9
2019-01-05T06:33:35.255Z,18.9
2019-01-05T06:34:25.897Z,18.9
2019-01-05T06:35:15.424Z,18.9
2019-01-05T06:36:05.445Z,18.9
2019-01-05T06:36:55.454Z,18.9
2019-01-05T06:37:45.244Z,18.9
2019-01-05T06:38:35.308Z,18.9
2019-01-05T06:39:25.691Z,18.9
2019-01-05T06:40:15.969Z,18.9
2019-01-05T06:41:05.743Z,18.9
2019-01-05T06:41:55.536Z,18.9
2019-01-05T06:42:45.893Z,18.9
2019-01-05T06:43:35.927Z,18.9
2019-01-05T06:44:26.518Z,18.9
2019-01-05T06:45:16.557Z,18.9
2019-01-05T06:46:06.368Z,18.9
2019-01-05T06:46:56.420Z,18.9
2019-01-05T06:47:46.211Z,18.9
2019-01-05T06:48:35.975Z,18.9
2019-01-05T06:49:26.358Z,18.9
2019-01-05T06:50:17.185Z,18.8
2019-01-05T06:51:06.430Z,18.9
2019-01-05T06:51:56.765Z,18.8
2019-01-05T06:52:46.258Z,18.9
2019-01-05T06:53:36.303Z,18.8
2019-01-05T06:54:26.665Z,18.9
2019-01-05T06:55:17.225Z,18.9
2019-01-05T06:56:06.743Z,18.8
2019-01-05T06:56:57.088Z,18.8
2019-01-05T06:57:46.590Z,18.8
2019-01-05T06:58:36.930Z,18.8
2019-01-05T06:59:26.457Z,18.8
2019-01-05T07:00:16.722Z,18.8
2019-01-05T07:01:07.407Z,18.8
2019-01-05T07:01:57.140Z,18.8
2019-01-05T07:02:47.210Z,18.8
2019-01-05T07:03:36.725Z,18.8
2019-01-05T07:04:27.339Z,18.8
2019-01-05T07:05:17.337Z,18.8
2019-01-05T07:06:06.902Z,18.8
2019-01-05T07:06:57.499Z,18.8
2019-01-05T07:07:47.550Z,18.8
2019-01-05T07:08:37.339Z,18.8
2019-01-05T07:09:27.666Z,18.8
2019-01-05T07:10:17.742Z,18.8
2019-01-05T07:11:07.784Z,18.8
2019-01-05T07:11:57.854Z,18.8
2019-01-05T07:12:48.176Z,18.8
2019-01-05T07:13:37.746Z,18.8
2019-01-05T07:14:28.042Z,18.8
2019-01-05T07:15:18.051Z,18.8
2019-01-05T07:16:08.124Z,18.8
2019-01-05T07:16:58.151Z,18.8
2019-01-05T07:17:48.501Z,18.8
2019-01-05T07:18:38.027Z,18.8
2019-01-05T07:19:28.369Z,18.8
2019-01-05T07:20:18.651Z,18.8
2019-01-05T07:21:08.241Z,18.8
2019-01-05T07:21:58.028Z,18.8
2019-01-05T07:22:48.576Z,18.8
2019-01-05T07:23:38.086Z,18.8
2019-01-05T07:24:28.966Z,18.8
2019-01-05T07:25:18.458Z,18.8
2019-01-05T07:26:09.351Z,18.8
2019-01-05T07:26:59.135Z,18.8
2019-01-05T07:27:48.906Z,18.8
2019-01-05T07:28:38.955Z,18.8
2019-01-05T07:29:28.463Z,18.8
2019-01-05T07:30:19.069Z,18.8
2019-01-05T07:31:09.405Z,18.8
2019-01-05T07:31:58.911Z,18.8
2019-01-05T07:32:49.533Z,18.8
2019-01-05T07:33:38.743Z,18.8
2019-01-05T07:34:29.642Z,18.8
2019-01-05T07:35:19.130Z,18.8
2019-01-05T07:36:09.733Z,18.8
2019-01-05T07:36:59.257Z,18.8
2019-01-05T07:37:49.583Z,18.8
2019-01-05T07:38:39.925Z,18.8
2019-01-05T07:39:29.735Z,18.8
2019-01-05T07:40:19.760Z,18.8
2019-01-05T07:41:09.752Z,18.8
2019-01-05T07:41:59.860Z,18.8
2019-01-05T07:42:49.377Z,18.8
2019-01-05T07:43:39.744Z,18.8
2019-01-05T07:44:30.042Z,18.8
2019-01-05T07:45:20.095Z,18.8
2019-01-05T07:46:10.205Z,18.8
2019-01-05T07:47:00.542Z,18.8
2019-01-05T07:47:49.716Z,18.8
2019-01-05T07:48:40.337Z,18.8
2019-01-05T07:49:30.677Z,18.8
2019-01-05T07:50:20.729Z,18.8
2019-01-05T07:51:10.199Z,18.8
2019-01-05T07:52:00.316Z,18.8
2019-01-05T07:52:50.607Z,18.8
2019-01-05T07:53:40.954Z,18.8
2019-01-05T07:54:31.000Z,18.8
2019-01-05T07:55:21.067Z,18.8
2019-01-05T07:56:10.826Z,18.8
2019-01-05T07:57:00.631Z,18.8
2019-01-05T07:57:51.237Z,18.8
2019-01-05T07:58:40.999Z,18.8
2019-01-05T07:59:31.332Z,18.8
2019-01-05T08:00:21.133Z,18.8
2019-01-05T08:01:10.654Z,18.8
2019-01-05T08:02:00.749Z,18.8
2019-01-05T08:02:51.289Z,18.8
2019-01-05T08:03:41.361Z,18.8
2019-01-05T08:04:31.131Z,18.8
2019-01-05T08:05:21.464Z,18.8
2019-01-05T08:06:11.846Z,18.8
2019-01-05T08:07:02.099Z,18.8
2019-01-05T08:07:51.628Z,18.8
2019-01-05T08:08:41.694Z,18.8
2019-01-05T08:10:21.825Z,18.8
2019-01-05T08:11:12.176Z,18.8
2019-01-05T08:12:51.538Z,18.8
2019-01-05T08:13:41.774Z,18.8
2019-01-05T08:14:31.815Z,18.8
2019-01-05T08:15:22.170Z,18.8
2019-01-05T08:16:12.209Z,18.8
2019-01-05T08:17:01.993Z,18.8
2019-01-05T08:17:52.045Z,18.8
2019-01-05T08:19:31.610Z,18.8
2019-01-05T08:21:12.002Z,18.8
2019-01-05T08:22:02.846Z,18.8
2019-01-05T08:22:52.305Z,18.8
2019-01-05T08:23:42.445Z,18.8
2019-01-05T08:24:32.771Z,18.8
2019-01-05T08:25:22.557Z,18.8
2019-01-05T08:27:52.432Z,18.8
2019-01-05T08:28:43.059Z,18.8
2019-01-05T08:31:13.514Z,18.8
2019-01-05T08:32:53.057Z,18.8
2019-01-05T08:33:43.662Z,18.8
2019-01-05T08:34:33.207Z,18.8
2019-01-05T08:35:23.511Z,18.8
2019-01-05T08:38:43.441Z,18.8
2019-01-05T08:59:35.410Z,18.4
2019-01-05T09:00:24.913Z,16.1
2019-01-05T09:01:15.255Z,35.3
2019-01-05T09:17:06.364Z,39.4
2019-01-05T09:17:56.077Z,38.9
2019-01-05T09:18:45.929Z,38.4
2019-01-05T09:19:36.452Z,38
2019-01-05T09:20:26.521Z,37.6
2019-01-05T09:21:16.009Z,37.1
2019-01-05T09:22:06.886Z,36.7
2019-01-05T09:22:56.736Z,36.3
2019-01-05T09:23:46.194Z,35.9
2019-01-05T09:24:36.242Z,35.6
2019-01-05T09:25:26.861Z,35.2
2019-01-05T09:26:16.626Z,34.8
2019-01-05T09:27:06.957Z,34.5
2019-01-05T09:27:56.983Z,34.2
2019-01-05T09:28:47.071Z,33.8
2019-01-05T09:29:36.851Z,33.5
2019-01-05T09:30:26.646Z,33.2
2019-01-05T09:31:16.976Z,32.9
2019-01-05T09:32:06.468Z,32.6
2019-01-05T09:32:57.073Z,32.3
2019-01-05T09:33:47.131Z,32.1
2019-01-05T09:34:37.233Z,31.8
2019-01-05T09:35:27.008Z,31.6
2019-01-05T09:36:17.595Z,31.3
2019-01-05T09:37:07.206Z,31.1
2019-01-05T09:37:56.886Z,30.9
2019-01-05T09:38:47.760Z,30.6
2019-01-05T09:39:37.312Z,30.4
2019-01-05T09:40:27.741Z,30.1
2019-01-05T09:41:17.943Z,29.9
2019-01-05T09:42:07.713Z,29.7
2019-01-05T09:42:57.865Z,29.5
2019-01-05T09:43:48.105Z,29.3
2019-01-05T09:44:37.585Z,29.1
2019-01-05T09:45:27.945Z,28.9
2019-01-05T09:46:17.451Z,28.8
2019-01-05T09:47:07.450Z,28.6
2019-01-05T09:47:58.135Z,28.4
2019-01-05T09:48:48.160Z,28.3
2019-01-05T09:49:38.233Z,28.1
2019-01-05T09:50:27.732Z,27.9
2019-01-05T09:51:18.340Z,27.8
2019-01-05T09:52:08.412Z,27.6
2019-01-05T09:52:58.430Z,27.4
2019-01-05T09:53:48.515Z,27.3
2019-01-05T09:54:37.752Z,27.1
2019-01-05T09:55:28.654Z,27
2019-01-05T09:56:18.411Z,26.9
2019-01-05T09:57:08.463Z,26.7
2019-01-05T09:57:59.297Z,26.6
2019-01-05T09:58:48.842Z,26.4
2019-01-05T09:59:38.992Z,26.3
2019-01-05T10:00:28.419Z,26.2
2019-01-05T10:01:18.789Z,26.1
2019-01-05T10:02:08.257Z,25.9
2019-01-05T10:02:58.959Z,25.8
2019-01-05T10:03:49.214Z,25.7
2019-01-05T10:04:38.994Z,25.6
2019-01-05T10:05:29.626Z,25.5
2019-01-05T10:06:19.691Z,25.4
2019-01-05T10:07:09.157Z,25.3
2019-01-05T10:07:59.774Z,25.2
2019-01-05T10:08:49.279Z,25.1
2019-01-05T10:09:39.339Z,24.9
2019-01-05T10:10:29.674Z,24.9
2019-01-05T10:11:19.161Z,24.8
2019-01-05T10:12:09.756Z,24.7
2019-01-05T10:12:59.808Z,24.6
2019-01-05T10:13:50.169Z,24.5
2019-01-05T10:14:39.664Z,24.4
2019-01-05T10:15:30.298Z,24.3
2019-01-05T10:16:20.051Z,24.3
2019-01-05T10:17:09.836Z,24.2
2019-01-05T10:17:59.971Z,24.1
2019-01-05T10:18:49.415Z,24
2019-01-05T10:19:40.276Z,23.9
2019-01-05T10:20:29.534Z,23.8
2019-01-05T10:21:20.128Z,23.8
2019-01-05T10:22:10.733Z,23.7
2019-01-05T10:23:01.040Z,23.6
2019-01-05T10:23:50.863Z,23.6
2019-01-05T10:24:40.358Z,23.5
2019-01-05T10:25:30.125Z,23.4
2019-01-05T10:26:20.518Z,23.3
2019-01-05T10:27:10.245Z,23.3
2019-01-05T10:28:00.362Z,23.3
2019-01-05T10:28:50.907Z,23.1
2019-01-05T10:29:41.245Z,23.1
2019-01-05T10:30:30.768Z,23.1
2019-01-05T10:31:21.082Z,22.9
2019-01-05T10:32:10.845Z,22.9
2019-01-05T10:33:00.945Z,22.8
2019-01-05T10:33:51.235Z,22.8
2019-01-05T10:34:41.317Z,22.8
2019-01-05T10:35:31.090Z,22.7
2019-01-05T10:36:21.132Z,22.6
2019-01-05T10:37:10.940Z,22.6
2019-01-05T10:38:01.027Z,22.5
2019-01-05T10:38:51.304Z,22.4
2019-01-05T10:39:41.638Z,22.4
2019-01-05T10:40:31.159Z,22.4
2019-01-05T10:41:21.202Z,22.3
2019-01-05T10:42:11.537Z,22.3
2019-01-05T10:43:01.584Z,22.2
2019-01-05T10:43:52.219Z,22.2
2019-01-05T10:44:41.711Z,21.9
2019-01-05T10:45:32.329Z,22.1
2019-01-05T10:46:22.097Z,21.9
2019-01-05T10:47:12.144Z,21.9
2019-01-05T10:48:02.487Z,21.9
2019-01-05T10:48:52.546Z,21.9
2019-01-05T10:49:42.089Z,21.8
2019-01-05T10:50:32.149Z,21.8
2019-01-05T10:51:21.891Z,21.8
2019-01-05T10:52:11.951Z,21.8
2019-01-05T10:53:02.016Z,21.6
2019-01-05T10:53:52.604Z,21.6
2019-01-05T10:54:42.661Z,21.6
2019-01-05T10:55:33.003Z,21.6
2019-01-05T10:56:21.959Z,21.5
2019-01-05T10:57:13.145Z,21.5
2019-01-05T10:58:02.071Z,21.3
2019-01-05T10:58:52.968Z,21.4
2019-01-05T10:59:42.488Z,21.4
2019-01-05T11:00:32.778Z,21.4
2019-01-05T11:01:23.184Z,21.3
2019-01-05T11:02:12.914Z,21.3
2019-01-05T11:03:02.681Z,21.3
2019-01-05T11:03:53.286Z,21.2
2019-01-05T11:07:13.248Z,21.1
2019-01-05T11:08:03.288Z,21.1
2019-01-05T11:08:53.648Z,21.1
2019-01-05T11:09:42.217Z,21
2019-01-05T11:10:33.749Z,20.9
2019-01-05T11:11:23.525Z,20.9
2019-01-05T11:12:14.150Z,20.9
2019-01-05T11:13:03.368Z,20.9
2019-01-05T11:13:54.253Z,20.9
2019-01-05T11:14:44.627Z,20.8
2019-01-05T11:15:34.079Z,20.8
2019-01-05T11:16:24.418Z,20.8
2019-01-05T11:17:14.266Z,20.8
2019-01-05T11:18:04.275Z,20.7
2019-01-05T11:18:54.637Z,20.7
2019-01-05T11:19:44.332Z,20.7
2019-01-05T11:20:39.019Z,20.6
2019-01-05T11:21:24.800Z,20.6
2019-01-05T11:22:14.322Z,20.6
2019-01-05T11:23:04.627Z,21.4
2019-01-05T11:23:54.672Z,23.3
2019-01-05T11:24:44.447Z,45.1
2019-01-05T11:25:35.100Z,57.6
2019-01-05T11:26:24.827Z,59.2
2019-01-05T11:27:14.342Z,58.8
2019-01-05T11:28:05.227Z,57.7
2019-01-05T11:28:55.044Z,55.6
2019-01-05T11:29:45.064Z,54.1
2019-01-05T11:30:34.309Z,53.1
2019-01-05T11:31:25.192Z,52.2
2019-01-05T11:32:14.425Z,51.3
2019-01-05T11:33:05.582Z,50.4
2019-01-05T11:33:55.616Z,49.7
2019-01-05T11:34:45.114Z,48.9
2019-01-05T11:35:35.781Z,48.1
2019-01-05T11:36:25.526Z,47.4
2019-01-05T11:37:15.018Z,46.8
2019-01-05T11:38:05.376Z,46.1
2019-01-05T11:38:55.981Z,45.4
2019-01-05T11:39:45.751Z,44.8
2019-01-05T11:40:35.845Z,44.2
2019-01-05T11:41:26.133Z,43.6
2019-01-05T11:42:15.727Z,43
2019-01-05T11:43:05.779Z,42.5
2019-01-05T11:43:56.098Z,41.9
2019-01-05T11:44:45.846Z,41.4
2019-01-05T11:45:36.539Z,40.9
2019-01-05T11:46:26.555Z,40.4
2019-01-05T11:47:16.523Z,39.9
2019-01-05T11:48:06.606Z,39.4
2019-01-05T11:48:56.382Z,39
2019-01-05T11:49:46.418Z,38.6
2019-01-05T11:50:36.501Z,38.1
2019-01-05T11:51:26.311Z,37.8
2019-01-05T11:52:16.607Z,37.4
2019-01-05T11:53:06.934Z,37
2019-01-05T11:53:56.505Z,36.6
2019-01-05T11:54:46.793Z,36.3
2019-01-05T11:55:37.105Z,35.9
2019-01-05T11:56:26.632Z,35.6
2019-01-05T11:57:16.687Z,35.2
2019-01-05T11:58:06.979Z,34.9
2019-01-05T11:58:57.073Z,34.6
2019-01-05T11:59:47.178Z,34.3
2019-01-05T12:00:36.650Z,33.9
2019-01-05T12:01:26.962Z,33.6
2019-01-05T12:02:22.777Z,33.4
2019-01-05T12:03:07.112Z,33.1
2019-01-05T12:03:57.389Z,32.8
2019-01-05T12:04:47.258Z,32.6
2019-01-05T12:05:37.784Z,32.3
2019-01-05T12:06:27.386Z,32.1
2019-01-05T12:07:17.364Z,31.8
2019-01-05T12:08:07.701Z,31.6
2019-01-05T12:08:57.757Z,31.3
2019-01-05T12:09:47.564Z,31.1
2019-01-05T12:10:37.366Z,30.9
2019-01-05T12:11:27.929Z,30.6
2019-01-05T12:12:18.224Z,30.4
2019-01-05T12:13:08.039Z,30.3
2019-01-05T12:13:58.326Z,30.1
2019-01-05T12:14:48.392Z,29.8
2019-01-05T12:15:38.496Z,29.6
2019-01-05T12:16:28.229Z,29.5
2019-01-05T12:17:18.301Z,29.3
2019-01-05T12:18:08.067Z,29.1
2019-01-05T12:18:58.124Z,28.9
2019-01-05T12:19:48.466Z,28.8
2019-01-05T12:20:38.559Z,28.6
2019-01-05T12:21:28.573Z,28.4
2019-01-05T12:22:18.976Z,28.3
2019-01-05T12:23:08.143Z,28.1
2019-01-05T12:23:58.736Z,28
2019-01-05T12:25:38.106Z,27.7
2019-01-05T12:26:28.783Z,27.5
2019-01-05T12:27:18.689Z,27.4
2019-01-05T12:28:09.308Z,27.3
2019-01-05T12:28:59.366Z,27.1
2019-01-05T12:29:49.442Z,27
2019-01-05T12:30:39.231Z,26.9
2019-01-05T12:31:29.259Z,26.7
2019-01-05T12:32:19.326Z,26.6
2019-01-05T12:33:09.378Z,26.4
2019-01-05T12:33:59.704Z,26.4
2019-01-05T12:34:49.486Z,26.3
2019-01-05T12:35:39.568Z,26.1
2019-01-05T12:36:29.067Z,26
2019-01-05T12:37:19.665Z,25.9
2019-01-05T12:38:09.988Z,25.8
2019-01-05T12:38:59.772Z,25.7
2019-01-05T12:39:49.553Z,25.6
2019-01-05T12:40:39.879Z,25.5
2019-01-05T12:41:29.665Z,25.4
2019-01-05T12:42:20.020Z,25.3
2019-01-05T12:43:09.224Z,25.2
2019-01-05T12:43:59.587Z,25.1
2019-01-05T12:44:50.452Z,25
2019-01-05T12:45:40.517Z,24.9
2019-01-05T12:46:30.822Z,24.8
2019-01-05T12:47:20.607Z,24.7
2019-01-05T12:48:10.927Z,24.6
2019-01-05T12:49:00.186Z,24.6
2019-01-05T12:49:50.479Z,24.4
2019-01-05T12:50:40.857Z,24.4
2019-01-05T12:51:30.657Z,24.3
2019-01-05T12:52:20.709Z,24.2
2019-01-05T12:53:11.046Z,24.2
2019-01-05T12:54:01.087Z,24.1
2019-01-05T12:54:50.586Z,24
2019-01-05T12:55:40.672Z,23.9
2019-01-05T12:56:31.229Z,23.9
2019-01-05T12:57:21.301Z,23.8
2019-01-05T12:58:10.282Z,23.8
2019-01-05T12:59:01.158Z,23.7
2019-01-05T12:59:51.284Z,23.6
2019-01-05T13:00:41.276Z,23.6
2019-01-05T13:01:31.928Z,23.4
2019-01-05T13:02:21.369Z,23.4
2019-01-05T13:03:11.713Z,23.4
2019-01-05T13:04:01.511Z,23.3
2019-01-05T13:04:51.561Z,23.3
2019-01-05T13:05:41.341Z,23.2
2019-01-05T13:06:32.205Z,23.1
2019-01-05T13:07:22.017Z,23.1
2019-01-05T13:08:11.513Z,23
2019-01-05T13:09:01.886Z,22.9
2019-01-05T13:09:51.668Z,22.9
2019-01-05T13:10:41.965Z,22.9
2019-01-05T13:11:31.266Z,22.8
2019-01-05T13:12:22.355Z,22.8
2019-01-05T13:13:11.639Z,22.7
2019-01-05T13:14:01.946Z,22.7
2019-01-05T13:14:51.986Z,22.6
2019-01-05T13:15:42.318Z,22.6
2019-01-05T13:16:31.833Z,22.5
2019-01-05T13:17:22.420Z,22.5
2019-01-05T13:18:12.215Z,22.4
2019-01-05T13:19:02.294Z,22.4
2019-01-05T13:19:52.590Z,22.3
2019-01-05T13:20:42.654Z,22.3
2019-01-05T13:21:32.427Z,22.3
2019-01-05T13:22:23.046Z,22.3
2019-01-05T13:23:12.829Z,22.2
2019-01-05T13:24:03.157Z,22.1
2019-01-05T13:24:52.939Z,22
2019-01-05T13:25:42.994Z,22
2019-01-05T13:26:33.340Z,22
2019-01-05T13:27:23.129Z,21.9
2019-01-05T13:28:13.754Z,21.9
2019-01-05T13:29:03.279Z,21.9
2019-01-05T13:29:53.663Z,21.8
2019-01-05T13:30:43.621Z,21.8
2019-01-05T13:31:33.158Z,21.8